createdAt,value
2015-11-21T00:00:41.353Z,6.4
2015-11-21T00:01:43.074Z,6.4
2015-11-21T00:03:40.001Z,6.4
2015-11-21T00:04:38.473Z,6.4
2015-11-21T00:05:40.804Z,6.4
2015-11-21T00:06:39.244Z,6.4
2015-11-21T00:07:41.559Z,6.4
2015-11-21T00:08:43.875Z,6.4
2015-11-21T00:09:46.174Z,6.4
2015-11-21T00:10:48.536Z,6.4
2015-11-21T00:11:50.273Z,6.4
2015-11-21T00:12:52.603Z,6.4
2015-11-21T00:13:54.904Z,6.4
2015-11-21T00:14:57.203Z,6.4
2015-11-21T00:15:59.519Z,6.4
2015-11-21T00:17:01.833Z,6.4
2015-11-21T00:18:04.149Z,6.4
2015-11-21T00:19:06.448Z,6.4
2015-11-21T00:20:08.748Z,6.4
2015-11-21T00:21:11.125Z,6.4
2015-11-21T00:22:12.863Z,6.4
2015-11-21T00:23:15.178Z,6.4
2015-11-21T00:24:17.478Z,6.4
2015-11-21T00:25:19.794Z,6.4
2015-11-21T00:26:22.124Z,6.4
2015-11-21T00:30:31.075Z,6.4
2015-11-21T00:31:33.437Z,6.4
2015-11-21T00:32:35.190Z,6.4
2015-11-21T00:33:37.505Z,6.4
2015-11-21T00:34:39.804Z,6.4
2015-11-21T00:35:42.119Z,6.4
2015-11-21T00:36:40.591Z,6.3
2015-11-21T00:37:39.047Z,6.4
2015-11-21T00:38:37.549Z,6.3
2015-11-21T00:39:36.240Z,6.4
2015-11-21T00:41:33.964Z,6.4
2015-11-21T00:43:34.454Z,6.3
2015-11-21T00:44:33.673Z,6.3
2015-11-21T00:45:35.943Z,6.3
2015-11-21T00:46:32.646Z,6.3
2015-11-21T00:47:32.149Z,6.3
2015-11-21T00:48:31.620Z,6.3
2015-11-21T00:49:31.358Z,6.3
2015-11-21T00:50:31.111Z,6.3
2015-11-21T00:51:30.910Z,6.2
2015-11-21T00:52:32.647Z,6.2
2015-11-21T00:53:32.384Z,6.3
2015-11-21T00:54:32.137Z,6.2
2015-11-21T00:55:31.890Z,6.2
2015-11-21T00:57:32.145Z,6.2
2015-11-21T00:58:32.226Z,6.2
2015-11-21T00:59:32.400Z,6.2
2015-11-21T01:00:32.653Z,6.2
2015-11-21T01:01:33.000Z,6.1
2015-11-21T01:02:34.706Z,6.1
2015-11-21T01:03:35.224Z,6.1
2015-11-21T01:05:36.012Z,6.1
2015-11-21T01:06:36.545Z,6.1
2015-11-21T01:07:37.048Z,6.1
2015-11-21T01:08:37.535Z,6.1
2015-11-21T01:09:38.084Z,6.1
2015-11-21T01:10:38.572Z,6.1
2015-11-21T01:11:39.152Z,6.1
2015-11-21T01:12:40.889Z,6.1
2015-11-21T01:13:41.658Z,6.1
2015-11-21T01:14:42.427Z,6.1
2015-11-21T01:15:43.195Z,6.1
2015-11-21T01:16:43.994Z,6.1
2015-11-21T01:17:44.763Z,6.1
2015-11-21T01:18:45.515Z,6.1
2015-11-21T01:19:46.283Z,6.1
2015-11-21T01:20:47.099Z,6.1
2015-11-21T01:21:47.899Z,6.1
2015-11-21T01:22:49.620Z,6.1
2015-11-21T01:24:51.156Z,6.1
2015-11-21T01:25:51.940Z,6.1
2015-11-21T01:27:53.478Z,6.1
2015-11-21T01:28:54.261Z,6.1
2015-11-21T01:29:55.014Z,6.1
2015-11-21T01:30:55.782Z,6.1
2015-11-21T01:31:56.613Z,6.1
2015-11-21T01:32:58.351Z,6.1
2015-11-21T01:33:59.135Z,6.1
2015-11-21T01:34:59.902Z,6.1
2015-11-21T01:36:00.671Z,6.1
2015-11-21T01:37:01.440Z,6.1
2015-11-21T01:38:02.240Z,6
2015-11-21T01:39:02.992Z,6.1
2015-11-21T01:43:07.112Z,6.1
2015-11-21T01:44:07.865Z,6.1
2015-11-21T01:45:08.665Z,6
2015-11-21T01:46:09.151Z,6.1
2015-11-21T01:47:09.685Z,6
2015-11-21T01:48:10.188Z,6
2015-11-21T01:49:10.706Z,6
2015-11-21T01:50:11.225Z,6
2015-11-21T01:52:12.323Z,6
2015-11-21T01:53:14.061Z,6
2015-11-21T01:54:14.564Z,6
2015-11-21T01:55:15.082Z,6
2015-11-21T01:56:15.585Z,6
2015-11-21T01:57:16.119Z,6
2015-11-21T01:58:16.637Z,6
2015-11-21T01:59:17.156Z,6
2015-11-21T02:00:17.392Z,6
2015-11-21T02:01:17.661Z,6
2015-11-21T02:02:18.242Z,6
2015-11-21T02:03:19.995Z,6
2015-11-21T02:04:20.482Z,6
2015-11-21T02:05:20.734Z,5.9
2015-11-21T02:06:21.002Z,6
2015-11-21T02:07:21.255Z,5.9
2015-11-21T02:08:21.524Z,6
2015-11-21T02:10:22.044Z,6
2015-11-21T02:11:22.313Z,6
2015-11-21T02:12:22.613Z,6
2015-11-21T02:13:24.365Z,6
2015-11-21T02:15:24.871Z,6
2015-11-21T02:17:25.392Z,6
2015-11-21T02:18:25.660Z,6
2015-11-21T02:19:25.913Z,6
2015-11-21T02:20:26.182Z,6
2015-11-21T02:22:26.750Z,6
2015-11-21T02:23:28.502Z,6
2015-11-21T02:24:28.755Z,6
2015-11-21T02:25:29.023Z,6
2015-11-21T02:26:29.291Z,6
2015-11-21T02:28:29.781Z,6
2015-11-21T02:29:30.049Z,5.9
2015-11-21T02:30:30.302Z,5.9
2015-11-21T02:31:30.320Z,5.9
2015-11-21T02:32:30.637Z,5.9
2015-11-21T02:33:32.357Z,5.9
2015-11-21T02:34:32.642Z,5.9
2015-11-21T02:35:32.629Z,5.9
2015-11-21T02:36:32.897Z,5.9
2015-11-21T02:37:32.884Z,5.9
2015-11-21T02:38:32.918Z,5.9
2015-11-21T02:39:32.890Z,5.9
2015-11-21T02:40:32.909Z,5.9
2015-11-21T02:41:32.645Z,5.9
2015-11-21T02:42:32.460Z,5.9
2015-11-21T02:43:34.198Z,5.9
2015-11-21T02:44:33.935Z,5.9
2015-11-21T02:45:33.718Z,5.9
2015-11-21T02:47:33.193Z,5.8
2015-11-21T02:48:32.945Z,5.8
2015-11-21T02:51:32.172Z,5.8
2015-11-21T02:52:31.987Z,5.8
2015-11-21T02:53:33.725Z,5.8
2015-11-21T02:54:33.477Z,5.8
2015-11-21T02:55:33.230Z,5.8
2015-11-21T02:56:32.952Z,5.7
2015-11-21T02:57:32.705Z,5.7
2015-11-21T02:58:32.473Z,5.7
2015-11-21T02:59:32.194Z,5.7
2015-11-21T03:00:31.944Z,5.7
2015-11-21T03:01:31.697Z,5.7
2015-11-21T03:02:31.528Z,5.7
2015-11-21T03:03:33.233Z,5.7
2015-11-21T03:04:32.986Z,5.7
2015-11-21T03:05:32.724Z,5.7
2015-11-21T03:06:33.898Z,5.7
2015-11-21T03:08:35.028Z,5.7
2015-11-21T03:09:31.718Z,5.7
2015-11-21T03:11:31.208Z,5.7
2015-11-21T03:12:31.024Z,5.7
2015-11-21T03:13:32.746Z,5.7
2015-11-21T03:14:32.498Z,5.7
2015-11-21T03:17:31.756Z,5.6
2015-11-21T03:18:31.493Z,5.6
2015-11-21T03:19:32.668Z,5.6
2015-11-21T03:20:30.982Z,5.6
2015-11-21T03:21:33.768Z,5.6
2015-11-21T03:22:30.535Z,5.6
2015-11-21T03:23:32.273Z,5.6
2015-11-21T03:24:32.040Z,5.6
2015-11-21T03:26:31.515Z,5.6
2015-11-21T03:27:31.267Z,5.6
2015-11-21T03:28:32.443Z,5.6
2015-11-21T03:29:30.757Z,5.6
2015-11-21T03:30:30.510Z,5.6
2015-11-21T03:31:30.263Z,5.6
2015-11-21T03:32:30.062Z,5.6
2015-11-21T03:33:31.800Z,5.6
2015-11-21T03:34:31.553Z,5.6
2015-11-21T03:35:31.320Z,5.6
2015-11-21T03:36:31.043Z,5.6
2015-11-21T03:37:30.811Z,5.6
2015-11-21T03:38:30.532Z,5.5
2015-11-21T03:40:30.037Z,5.5
2015-11-21T03:41:29.790Z,5.5
2015-11-21T03:42:29.590Z,5.6
2015-11-21T03:43:31.359Z,5.5
2015-11-21T03:44:31.080Z,5.6
2015-11-21T03:46:30.836Z,5.6
2015-11-21T03:47:30.588Z,5.6
2015-11-21T03:48:30.325Z,5.6
2015-11-21T03:49:30.078Z,5.5
2015-11-21T03:50:29.830Z,5.6
2015-11-21T03:51:29.583Z,5.6
2015-11-21T03:52:29.383Z,5.5
2015-11-21T03:53:31.135Z,5.6
2015-11-21T03:54:30.888Z,5.6
2015-11-21T03:55:30.625Z,5.6
2015-11-21T03:56:30.378Z,5.6
2015-11-21T03:57:30.131Z,5.6
2015-11-21T03:58:29.884Z,5.6
2015-11-21T03:59:29.622Z,5.6
2015-11-21T04:00:29.374Z,5.6
2015-11-21T04:01:29.127Z,5.6
2015-11-21T04:02:28.926Z,5.6
2015-11-21T04:03:30.678Z,5.6
2015-11-21T04:04:30.431Z,5.6
2015-11-21T04:05:30.168Z,5.6
2015-11-21T04:06:29.921Z,5.6
2015-11-21T04:07:29.674Z,5.6
2015-11-21T04:08:29.424Z,5.5
2015-11-21T04:10:30.085Z,5.5
2015-11-21T04:11:28.151Z,5.5
2015-11-21T04:12:27.716Z,5.5
2015-11-21T04:14:28.955Z,5.4
2015-11-21T04:15:28.708Z,5.4
2015-11-21T04:16:28.430Z,5.4
2015-11-21T04:17:28.182Z,5.4
2015-11-21T04:18:27.685Z,5.4
2015-11-21T04:19:27.173Z,5.4
2015-11-21T04:20:26.660Z,5.3
2015-11-21T04:21:29.193Z,5.3
2015-11-21T04:22:27.384Z,5.3
2015-11-21T04:23:30.746Z,5.3
2015-11-21T04:26:26.707Z,5.3
2015-11-21T04:27:26.460Z,5.3
2015-11-21T04:28:26.198Z,5.3
2015-11-21T04:29:25.965Z,5.3
2015-11-21T04:31:26.877Z,5.2
2015-11-21T04:32:25.271Z,5.2
2015-11-21T04:33:27.024Z,5.2
2015-11-21T04:34:26.760Z,5.2
2015-11-21T04:35:26.512Z,5.2
2015-11-21T04:36:26.265Z,5.2
2015-11-21T04:37:27.425Z,5.2
2015-11-21T04:38:25.787Z,5.2
2015-11-21T04:39:25.509Z,5.2
2015-11-21T04:40:25.276Z,5.2
2015-11-21T04:41:25.014Z,5.2
2015-11-21T04:42:24.829Z,5.2
2015-11-21T04:43:26.567Z,5.1
2015-11-21T04:44:26.070Z,5.1
2015-11-21T04:45:25.556Z,5.1
2015-11-21T04:46:25.059Z,5.1
2015-11-21T04:47:24.546Z,5.1
2015-11-21T04:48:24.065Z,5.1
2015-11-21T04:49:26.567Z,5.1
2015-11-21T04:50:23.038Z,5.1
2015-11-21T04:51:22.541Z,5.1
2015-11-21T04:52:21.856Z,5.1
2015-11-21T04:54:23.080Z,5
2015-11-21T04:55:22.552Z,5
2015-11-21T04:56:25.102Z,5
2015-11-21T04:57:21.292Z,5
2015-11-21T04:58:20.794Z,5
2015-11-21T04:59:20.313Z,4.9
2015-11-21T05:00:19.519Z,4.9
2015-11-21T05:01:19.037Z,4.9
2015-11-21T05:02:18.586Z,4.9
2015-11-21T05:03:20.338Z,4.9
2015-11-21T05:04:19.842Z,4.9
2015-11-21T05:05:19.594Z,4.9
2015-11-21T05:06:19.344Z,4.9
2015-11-21T05:07:19.082Z,4.9
2015-11-21T05:08:20.244Z,4.9
2015-11-21T05:09:18.588Z,4.9
2015-11-21T05:11:18.093Z,4.9
2015-11-21T05:12:17.893Z,4.9
2015-11-21T05:13:19.646Z,4.9
2015-11-21T05:14:19.398Z,4.9
2015-11-21T05:15:19.151Z,4.9
2015-11-21T05:16:20.340Z,4.9
2015-11-21T05:17:18.656Z,4.9
2015-11-21T05:18:18.393Z,4.9
2015-11-21T05:19:18.411Z,4.9
2015-11-21T05:20:18.414Z,4.9
2015-11-21T05:21:18.432Z,4.9
2015-11-21T05:22:18.498Z,4.9
2015-11-21T05:23:20.250Z,4.9
2015-11-21T05:24:20.254Z,4.9
2015-11-21T05:25:20.256Z,4.9
2015-11-21T05:26:20.274Z,4.9
2015-11-21T05:27:20.276Z,4.9
2015-11-21T05:28:20.312Z,4.9
2015-11-21T05:29:21.454Z,4.9
2015-11-21T05:30:20.066Z,4.9
2015-11-21T05:31:20.070Z,4.9
2015-11-21T05:32:20.401Z,4.9
2015-11-21T05:33:22.122Z,4.9
2015-11-21T05:34:22.390Z,4.9
2015-11-21T05:35:22.673Z,4.9
2015-11-21T05:36:22.926Z,4.9
2015-11-21T05:37:23.195Z,4.9
2015-11-21T05:38:23.479Z,4.9
2015-11-21T05:39:23.731Z,4.9
2015-11-21T05:41:24.253Z,4.9
2015-11-21T05:42:24.568Z,5
2015-11-21T05:43:26.336Z,4.9
2015-11-21T05:44:26.589Z,4.9
2015-11-21T05:46:27.110Z,5
2015-11-21T05:47:27.394Z,4.9
2015-11-21T05:48:27.663Z,5
2015-11-21T05:49:27.916Z,5
2015-11-21T05:50:28.184Z,5
2015-11-21T05:51:28.436Z,5
2015-11-21T05:52:28.783Z,5
2015-11-21T05:53:30.535Z,5
2015-11-21T05:54:30.772Z,4.9
2015-11-21T05:55:31.057Z,5
2015-11-21T05:56:31.310Z,5
2015-11-21T05:57:31.577Z,5
2015-11-21T05:58:31.830Z,5
2015-11-21T05:59:32.099Z,5
2015-11-21T06:00:32.366Z,5
2015-11-21T06:01:32.652Z,5
2015-11-21T06:02:32.966Z,5
2015-11-21T06:03:34.704Z,5
2015-11-21T06:04:35.002Z,5
2015-11-21T06:05:35.241Z,5
2015-11-21T06:07:35.761Z,5
2015-11-21T06:08:36.030Z,5
2015-11-21T06:09:36.299Z,5
2015-11-21T06:10:36.566Z,5.1
2015-11-21T06:11:36.851Z,5
2015-11-21T06:12:37.149Z,5.1
2015-11-21T06:13:38.902Z,5.1
2015-11-21T06:14:39.171Z,5.1
2015-11-21T06:15:39.439Z,5.1
2015-11-21T06:16:39.692Z,5.1
2015-11-21T06:17:39.960Z,5.1
2015-11-21T06:18:40.229Z,5.1
2015-11-21T06:19:40.497Z,5.1
2015-11-21T06:20:40.765Z,5.1
2015-11-21T06:21:41.034Z,5.1
2015-11-21T06:22:41.365Z,5.1
2015-11-21T06:23:43.102Z,5.1
2015-11-21T06:24:43.370Z,5.1
2015-11-21T06:25:43.623Z,5.1
2015-11-21T06:26:43.907Z,5.1
2015-11-21T06:27:44.159Z,5.1
2015-11-21T06:28:44.444Z,5.1
2015-11-21T06:29:44.681Z,5.1
2015-11-21T06:30:44.949Z,5.1
2015-11-21T06:31:45.218Z,5.1
2015-11-21T06:32:45.548Z,5.1
2015-11-21T06:33:47.301Z,5.1
2015-11-21T06:34:47.554Z,5.1
2015-11-21T06:35:47.853Z,5.1
2015-11-21T06:36:48.106Z,5.1
2015-11-21T06:37:48.343Z,5.1
2015-11-21T06:38:48.612Z,5.1
2015-11-21T06:39:48.880Z,5.1
2015-11-21T06:40:48.883Z,5.2
2015-11-21T06:41:48.933Z,5.2
2015-11-21T06:42:48.966Z,5.2
2015-11-21T06:44:50.719Z,5.2
2015-11-21T06:46:51.631Z,5.2
2015-11-21T06:47:49.961Z,5.2
2015-11-21T06:48:49.714Z,5.2
2015-11-21T06:49:49.483Z,5.2
2015-11-21T06:50:49.236Z,5.2
2015-11-21T06:51:49.004Z,5.3
2015-11-21T06:54:50.308Z,5.2
2015-11-21T06:55:50.030Z,5.3
2015-11-21T06:56:51.205Z,5.3
2015-11-21T06:57:49.566Z,5.3
2015-11-21T06:58:49.304Z,5.3
2015-11-21T06:59:49.042Z,5.3
2015-11-21T07:00:48.794Z,5.3
2015-11-21T07:01:48.564Z,5.3
2015-11-21T07:02:48.363Z,5.3
2015-11-21T07:03:50.116Z,5.3
2015-11-21T07:04:49.884Z,5.3
2015-11-21T07:05:49.621Z,5.3
2015-11-21T07:07:49.110Z,5.3
2015-11-21T07:10:48.369Z,5.4
2015-11-21T07:11:47.855Z,5.4
2015-11-21T07:12:47.421Z,5.4
2015-11-21T07:13:49.158Z,5.3
2015-11-21T07:14:48.646Z,5.4
2015-11-21T07:15:48.163Z,5.3
2015-11-21T07:16:47.402Z,5.3
2015-11-21T07:17:46.654Z,5.4
2015-11-21T07:18:45.874Z,5.4
2015-11-21T07:19:45.112Z,5.4
2015-11-21T07:20:44.349Z,5.4
2015-11-21T07:22:42.886Z,5.4
2015-11-21T07:23:44.654Z,5.4
2015-11-21T07:25:46.143Z,5.5
2015-11-21T07:26:42.350Z,5.5
2015-11-21T07:27:41.587Z,5.5
2015-11-21T07:28:40.823Z,5.5
2015-11-21T07:29:40.062Z,5.5
2015-11-21T07:30:42.329Z,5.5
2015-11-21T07:31:41.582Z,5.5
2015-11-21T07:33:39.587Z,5.5
2015-11-21T07:34:38.809Z,5.5
2015-11-21T07:35:38.078Z,5.5
2015-11-21T07:36:37.298Z,5.5
2015-11-21T07:37:36.551Z,5.5
2015-11-21T07:38:35.773Z,5.5
2015-11-21T07:39:35.026Z,5.6
2015-11-21T07:41:36.515Z,5.6
2015-11-21T07:42:32.784Z,5.6
2015-11-21T07:43:34.537Z,5.6
2015-11-21T07:44:33.789Z,5.6
2015-11-21T07:45:32.742Z,5.6
2015-11-21T07:46:31.464Z,5.6
2015-11-21T07:47:30.201Z,5.6
2015-11-21T07:48:29.173Z,5.6
2015-11-21T07:49:28.159Z,5.6
2015-11-21T07:51:26.384Z,5.6
2015-11-21T07:52:25.683Z,5.6
2015-11-21T07:53:27.420Z,5.6
2015-11-21T07:54:26.673Z,5.6
2015-11-21T07:55:25.895Z,5.6
2015-11-21T07:56:25.116Z,5.6
2015-11-21T07:57:24.603Z,5.7
2015-11-21T07:58:24.106Z,5.6
2015-11-21T07:59:23.609Z,5.7
2015-11-21T08:00:23.346Z,5.7
2015-11-21T08:01:22.861Z,5.6
2015-11-21T08:03:24.374Z,5.7
2015-11-21T08:04:24.115Z,5.7
2015-11-21T08:05:23.871Z,5.7
2015-11-21T08:06:23.583Z,5.7
2015-11-21T08:07:23.347Z,5.7
2015-11-21T08:09:22.828Z,5.7
2015-11-21T08:10:22.592Z,5.7
2015-11-21T08:11:22.326Z,5.7
2015-11-21T08:12:22.124Z,5.7
2015-11-21T08:13:23.875Z,5.7
2015-11-21T08:14:23.641Z,5.7
2015-11-21T08:15:23.361Z,5.7
2015-11-21T08:16:24.551Z,5.7
2015-11-21T08:17:24.288Z,5.7
2015-11-21T08:18:22.634Z,5.7
2015-11-21T08:19:22.621Z,5.7
2015-11-21T08:20:22.388Z,5.8
2015-11-21T08:21:22.125Z,5.7
2015-11-21T08:22:21.955Z,5.8
2015-11-21T08:23:23.693Z,5.8
2015-11-21T08:24:23.695Z,5.8
2015-11-21T08:25:23.698Z,5.8
2015-11-21T08:26:23.715Z,5.8
2015-11-21T08:27:23.734Z,5.8
2015-11-21T08:28:23.752Z,5.8
2015-11-21T08:29:23.723Z,5.8
2015-11-21T08:30:23.726Z,5.8
2015-11-21T08:31:23.478Z,5.8
2015-11-21T08:32:23.544Z,5.8
2015-11-21T08:33:25.281Z,5.8
2015-11-21T08:34:25.300Z,5.8
2015-11-21T08:35:25.302Z,5.9
2015-11-21T08:36:25.055Z,5.8
2015-11-21T08:37:24.792Z,5.8
2015-11-21T08:38:24.545Z,5.8
2015-11-21T08:39:25.719Z,5.8
2015-11-21T08:40:25.456Z,5.8
2015-11-21T08:41:26.833Z,5.8
2015-11-21T08:42:23.603Z,5.8
2015-11-21T08:43:25.339Z,5.8
2015-11-21T08:44:25.108Z,5.8
2015-11-21T08:45:24.844Z,5.8
2015-11-21T08:46:24.594Z,5.8
2015-11-21T08:47:24.348Z,5.8
2015-11-21T08:48:24.085Z,5.8
2015-11-21T08:49:23.853Z,5.8
2015-11-21T08:50:23.606Z,5.8
2015-11-21T08:51:23.343Z,5.8
2015-11-21T08:52:23.144Z,5.8
2015-11-21T08:53:24.911Z,5.9
2015-11-21T08:54:24.649Z,5.9
2015-11-21T08:55:24.386Z,5.9
2015-11-21T08:56:24.154Z,5.9
2015-11-21T08:57:23.891Z,5.9
2015-11-21T08:58:23.893Z,5.9
2015-11-21T08:59:23.896Z,5.9
2015-11-21T09:00:23.915Z,6
2015-11-21T09:01:23.918Z,6
2015-11-21T09:02:23.982Z,6
2015-11-21T09:03:25.751Z,6
2015-11-21T09:04:25.754Z,6.1
2015-11-21T09:06:26.243Z,6.1
2015-11-21T09:08:26.874Z,6.1
2015-11-21T09:09:26.298Z,6.2
2015-11-21T09:11:26.882Z,6.2
2015-11-21T09:12:26.338Z,6.2
2015-11-21T09:13:28.090Z,6.2
2015-11-21T09:14:27.843Z,6.2
2015-11-21T09:15:27.596Z,6.3
2015-11-21T09:17:28.508Z,6.3
2015-11-21T09:18:26.823Z,6.3
2015-11-21T09:19:26.592Z,6.3
2015-11-21T09:20:26.329Z,6.3
2015-11-21T09:21:26.081Z,6.3
2015-11-21T09:22:25.897Z,6.4
2015-11-21T09:23:27.633Z,6.4
2015-11-21T09:24:27.105Z,6.4
2015-11-21T09:25:26.608Z,6.5
2015-11-21T09:26:26.111Z,6.5
2015-11-21T09:27:25.613Z,6.5
2015-11-21T09:28:25.116Z,6.5
2015-11-21T09:29:24.587Z,6.5
2015-11-21T09:31:26.592Z,6.5
2015-11-21T09:32:22.861Z,6.6
2015-11-21T09:33:24.614Z,6.6
2015-11-21T09:34:23.836Z,6.6
2015-11-21T09:36:22.310Z,6.7
2015-11-21T09:37:21.547Z,6.7
2015-11-21T09:38:20.783Z,6.7
2015-11-21T09:39:23.052Z,6.8
2015-11-21T09:40:19.242Z,6.8
2015-11-21T09:42:17.780Z,6.8
2015-11-21T09:43:19.532Z,6.8
2015-11-21T09:44:18.503Z,6.9
2015-11-21T09:45:17.225Z,6.8
2015-11-21T09:46:15.944Z,6.8
2015-11-21T09:47:17.683Z,6.9
2015-11-21T09:48:13.371Z,6.9
2015-11-21T09:49:12.093Z,6.9
2015-11-21T09:50:10.814Z,6.9
2015-11-21T09:52:11.351Z,6.9
2015-11-21T09:53:10.057Z,6.9
2015-11-21T09:54:12.387Z,6.9
2015-11-21T09:56:16.737Z,6.9
2015-11-21T09:57:18.786Z,6.9
2015-11-21T09:58:20.867Z,6.9
2015-11-21T09:59:23.151Z,6.9
2015-11-21T10:00:25.466Z,6.9
2015-11-21T10:01:27.782Z,6.9
2015-11-21T10:02:30.143Z,7
2015-11-21T10:03:31.881Z,7
2015-11-21T10:04:34.214Z,6.9
2015-11-21T10:05:36.514Z,7
2015-11-21T10:06:38.813Z,7
2015-11-21T10:07:41.128Z,6.9
2015-11-21T10:08:43.428Z,7
2015-11-21T10:09:45.759Z,7
2015-11-21T10:10:48.042Z,7
2015-11-21T10:11:50.373Z,7.1
2015-11-21T10:12:52.751Z,7
2015-11-21T10:14:56.773Z,7.1
2015-11-21T10:17:01.387Z,7.2
2015-11-21T10:18:03.718Z,7.2
2015-11-21T10:19:06.050Z,7.2
2015-11-21T10:20:08.083Z,7.2
2015-11-21T10:21:10.118Z,7.2
2015-11-21T10:22:12.183Z,7.3
2015-11-21T10:23:14.279Z,7.3
2015-11-21T10:24:16.016Z,7.3
2015-11-21T10:25:17.566Z,7.2
2015-11-21T10:26:19.099Z,7.2
2015-11-21T10:27:20.367Z,7.3
2015-11-21T10:28:21.652Z,7.3
2015-11-21T10:29:22.952Z,7.2
2015-11-21T10:30:24.236Z,7.3
2015-11-21T10:31:25.535Z,7.3
2015-11-21T10:32:27.069Z,7.3
2015-11-21T10:33:28.384Z,7.3
2015-11-21T10:34:30.152Z,7.3
2015-11-21T10:35:31.406Z,7.3
2015-11-21T10:36:32.689Z,7.4
2015-11-21T10:37:33.739Z,7.4
2015-11-21T10:38:34.507Z,7.4
2015-11-21T10:40:35.810Z,7.4
2015-11-21T10:41:36.563Z,7.4
2015-11-21T10:42:37.331Z,7.4
2015-11-21T10:43:37.911Z,7.5
2015-11-21T10:44:39.649Z,7.5
2015-11-21T10:45:39.870Z,7.5
2015-11-21T10:46:40.483Z,7.5
2015-11-21T10:47:39.376Z,7.4
2015-11-21T10:48:38.847Z,7.5
2015-11-21T10:49:38.599Z,7.5
2015-11-21T10:50:38.337Z,7.5
2015-11-21T10:51:38.340Z,7.5
2015-11-21T10:52:38.092Z,7.5
2015-11-21T10:53:38.142Z,7.5
2015-11-21T10:54:39.863Z,7.6
2015-11-21T10:55:39.866Z,7.6
2015-11-21T10:56:39.884Z,7.6
2015-11-21T10:57:39.606Z,7.7
2015-11-21T10:58:39.359Z,7.7
2015-11-21T10:59:39.096Z,7.7
2015-11-21T11:00:38.833Z,7.7
2015-11-21T11:01:38.585Z,7.7
2015-11-21T11:02:38.323Z,7.8
2015-11-21T11:04:39.860Z,7.8
2015-11-21T11:05:39.081Z,7.8
2015-11-21T11:07:40.056Z,7.8
2015-11-21T11:10:33.436Z,7.8
2015-11-21T11:11:32.142Z,7.8
2015-11-21T11:13:29.647Z,7.8
2015-11-21T11:14:31.384Z,7.8
2015-11-21T11:15:33.700Z,7.8
2015-11-21T11:16:35.484Z,7.8
2015-11-21T11:17:37.798Z,7.7
2015-11-21T11:18:39.848Z,7.7
2015-11-21T11:19:42.132Z,7.7
2015-11-21T11:20:44.432Z,7.8
2015-11-21T11:21:42.887Z,7.8
2015-11-21T11:22:45.203Z,7.8
2015-11-21T11:23:47.564Z,7.8
2015-11-21T11:25:50.839Z,7.7
2015-11-21T11:26:52.622Z,7.7
2015-11-21T11:27:54.407Z,7.7
2015-11-21T11:28:56.206Z,7.8
2015-11-21T11:33:02.092Z,7.6
2015-11-21T11:35:05.144Z,7.6
2015-11-21T11:36:06.460Z,7.6
2015-11-21T11:37:07.963Z,7.6
2015-11-21T11:39:10.515Z,7.5
2015-11-21T11:40:11.830Z,7.5
2015-11-21T11:41:13.348Z,7.5
2015-11-21T11:42:15.132Z,7.5
2015-11-21T11:43:16.916Z,7.5
2015-11-21T11:44:18.513Z,7.6
2015-11-21T11:45:20.250Z,7.6
2015-11-21T11:46:21.784Z,7.5
2015-11-21T11:47:23.569Z,7.6
2015-11-21T11:48:25.352Z,7.6
2015-11-21T11:49:27.152Z,7.6
2015-11-21T11:50:29.217Z,7.6
2015-11-21T11:52:33.316Z,7.7
2015-11-21T11:56:39.936Z,7.7
2015-11-21T11:58:42.754Z,7.6
2015-11-21T11:59:44.288Z,7.7
2015-11-21T12:01:47.107Z,7.7
2015-11-21T12:02:48.375Z,7.6
2015-11-21T12:03:49.659Z,7.6
2015-11-21T12:04:50.989Z,7.6
2015-11-21T12:05:52.726Z,7.6
2015-11-21T12:06:54.260Z,7.6
2015-11-21T12:07:55.795Z,7.6
2015-11-21T12:08:57.329Z,7.6
2015-11-21T12:09:58.878Z,7.6
2015-11-21T12:11:00.412Z,7.6
2015-11-21T12:12:01.681Z,7.6
2015-11-21T12:13:02.948Z,7.5
2015-11-21T12:14:04.498Z,7.5
2015-11-21T12:15:06.345Z,7.5
2015-11-21T12:16:08.067Z,7.5
2015-11-21T12:17:09.881Z,7.5
2015-11-21T12:19:12.918Z,7.5
2015-11-21T12:20:14.453Z,7.4
2015-11-21T12:21:16.017Z,7.4
2015-11-21T12:22:17.786Z,7.4
2015-11-21T12:23:19.600Z,7.4
2015-11-21T12:24:21.385Z,7.3
2015-11-21T12:25:23.216Z,7.3
2015-11-21T12:26:24.953Z,7.3
2015-11-21T12:27:26.752Z,7.3
2015-11-21T12:28:28.803Z,7.2
2015-11-21T12:29:30.867Z,7.2
2015-11-21T12:34:38.381Z,7.1
2015-11-21T12:35:36.758Z,7.2
2015-11-21T12:36:38.699Z,0
2015-11-21T12:37:37.452Z,7.2
